Latest Weather Observations for Minnipa RS

IDS60801

Issued at 12:05 pm CST Tuesday 29 July 2014 (issued every 30 minutes, with the page automatically refreshed every 10 minutes)

About weather observations | Map of weather stations | Latest weather observations for SA | Other Formats
Station Details ID: 018195 Name: MINNIPA PIRSA Lat: -32.84 Lon: 135.15 Height: 165.0 m
Data from the previous 72 hours. | See also: Recent months at Minnipa RS
Date/Time
CST
Temp
°C
App
Temp
°C
Dew
Point
Rel
Hum
%
Delta-T
°C
Wind Press
QNH
hPa
Press
MSL
hPa
Rain
since 9 am
mm
Dir
 
Spd
km/h
Gust
km/h
Spd
kts
Gust
kts
29/12:00pm 16.9 12.5 10.3 65 3.5 WNW 24 37 13 20 1021.2 1021.4 0.0
29/11:30am 16.3 12.1 9.9 66 3.4 WNW 22 33 12 18 1021.6 - 0.0
29/11:00am 15.4 11.7 9.5 68 3.1 WNW 19 28 10 15 1022.0 - 0.0
29/10:30am 14.3 10.7 10.7 79 1.9 NW 20 26 11 14 1021.9 - 0.0
29/10:00am 12.9 8.7 9.9 82 1.6 NW 22 28 12 15 1021.8 - 0.0
29/09:30am 11.7 8.5 9.8 88 1.0 NNW 17 22 9 12 1021.4 - 0.0
29/09:00am 9.9 6.4 8.7 92 0.6 NNW 17 20 9 11 1021.3 1021.5 0.0
29/08:30am 8.5 4.7 7.6 94 0.4 NNW 17 22 9 12 1021.0 - 0.0
29/08:00am 7.6 3.7 6.9 95 0.3 N 17 20 9 11 1020.8 - 0.0
29/07:30am 7.5 3.5 6.6 94 0.4 N 17 20 9 11 1020.3 - 0.0
29/07:00am 8.1 4.2 7.2 94 0.4 NNW 17 20 9 11 1020.1 - 0.0
29/06:30am 8.1 4.6 7.2 94 0.4 NNW 15 19 8 10 1019.7 - 0.0
29/06:00am 8.3 4.5 7.4 94 0.4 NNW 17 19 9 10 1019.5 1019.6 0.0
29/05:30am 8.3 4.8 7.4 94 0.4 NNW 15 19 8 10 1019.5 - 0.0
29/05:00am 8.5 5.1 7.6 94 0.4 NW 15 19 8 10 1019.3 - 0.0
29/04:30am 8.4 4.9 7.3 93 0.5 NW 15 19 8 10 1019.1 - 0.0
29/04:00am 8.4 5.0 7.5 94 0.4 NW 15 19 8 10 1019.3 - 0.0
29/03:30am 8.1 4.6 7.0 93 0.5 NNW 15 20 8 11 1019.5 - 0.0
29/03:00am 8.4 4.5 7.3 93 0.5 NW 17 22 9 12 1019.5 1019.6 0.0
29/02:30am 7.7 3.7 6.6 93 0.5 NNW 17 19 9 10 1019.4 - 0.0
29/02:00am 7.9 3.9 6.7 92 0.6 NNW 17 20 9 11 1019.3 - 0.0
29/01:30am 8.0 4.0 6.6 91 0.7 NNW 17 20 9 11 1019.5 - 0.0
29/01:00am 8.0 4.3 6.5 90 0.7 NNW 15 19 8 10 1019.6 - 0.0
29/12:30am 8.2 4.5 6.5 89 0.8 NNW 15 17 8 9 1019.7 - 0.0
29/12:00am 8.2 4.5 6.3 88 0.9 NNW 15 17 8 9 1019.8 1019.9 0.0
 
Date/Time
CST
Temp
°C
App
Temp
°C
Dew
Point
Rel
Hum
%
Delta-T
°C
Wind Press
QNH
hPa
Press
MSL
hPa
Rain
since 9 am
mm
Dir
 
Spd
km/h
Gust
km/h
Spd
kts
Gust
kts
28/11:30pm 8.4 4.7 6.2 86 1.0 NNW 15 17 8 9 1020.1 - 0.0
28/11:00pm 9.1 5.4 6.4 83 1.3 NNW 15 19 8 10 1020.0 - 0.0
28/10:30pm 9.3 5.6 6.4 82 1.4 NW 15 17 8 9 1020.0 - 0.0
28/10:00pm 9.5 5.7 6.0 79 1.6 NW 15 17 8 9 1020.0 - 0.0
28/09:30pm 10.4 6.9 7.1 80 1.6 WNW 15 19 8 10 1020.0 - 0.0
28/09:00pm 10.4 7.4 7.8 84 1.3 NW 13 17 7 9 1019.8 1019.9 0.0
28/08:30pm 10.6 7.8 8.4 86 1.1 NW 13 15 7 8 1019.7 - 0.0
28/08:00pm 10.5 7.6 8.3 86 1.1 NNW 13 15 7 8 1019.6 - 0.0
28/07:30pm 10.8 7.9 8.2 84 1.3 NW 13 13 7 7 1019.4 - 0.0
28/07:00pm 10.8 8.3 8.4 85 1.2 NNW 11 15 6 8 1019.2 - 0.0
28/06:30pm 11.3 9.0 8.9 85 1.2 NW 11 13 6 7 1019.1 - 0.0
28/06:00pm 11.7 9.4 8.9 83 1.4 NW 11 13 6 7 1018.8 1018.9 0.0
28/05:30pm 12.4 10.1 9.1 80 1.7 NW 11 13 6 7 1018.7 - 0.0
28/05:00pm 13.9 11.3 9.5 75 2.3 NW 13 15 7 8 1018.6 - 0.0
28/04:30pm 15.0 11.9 8.7 66 3.2 NW 15 17 8 9 1018.5 - 0.0
28/04:00pm 15.6 12.5 7.4 58 4.1 WNW 13 19 7 10 1018.4 - 0.0
28/03:30pm 16.0 13.0 7.7 58 4.2 WNW 13 17 7 9 1018.4 - 0.0
28/03:00pm 16.6 13.2 7.5 55 4.6 WNW 15 20 8 11 1018.3 1018.4 0.0
28/02:30pm 16.4 12.4 6.8 53 4.8 W 17 22 9 12 1018.4 - 0.0
28/02:00pm 16.1 12.6 7.3 56 4.4 WSW 15 20 8 11 1018.7 - 0.0
28/01:30pm 16.1 12.5 8.3 60 4.0 WSW 17 24 9 13 1019.0 - 0.0
28/01:00pm 16.6 13.3 9.5 63 3.7 NW 17 20 9 11 1019.5 - 0.0
28/12:30pm 17.5 14.0 10.1 62 4.0 WNW 19 26 10 14 1019.8 - 0.0
28/12:00pm 16.3 13.3 12.1 76 2.3 WNW 19 26 10 14 1020.0 1020.1 0.0
28/11:30am 15.7 13.7 12.6 82 1.7 WNW 15 20 8 11 1020.4 - 0.0
28/11:00am 15.0 13.0 12.7 86 1.3 NW 15 20 8 11 1020.6 - 0.0
28/10:30am 14.3 13.1 12.9 91 0.8 NNW 11 15 6 8 1020.8 - 0.0
28/10:00am 13.8 12.2 12.7 93 0.6 NW 13 17 7 9 1020.9 - 0.0
28/09:30am 12.3 10.7 11.4 94 0.5 NNW 11 15 6 8 1020.7 - 0.0
28/09:00am 11.3 9.0 10.5 95 0.4 NNW 13 17 7 9 1020.7 1020.8 0.0
28/08:30am 10.3 7.7 9.4 94 0.5 N 13 15 7 8 1020.7 - 0.0
28/08:00am 10.1 7.8 8.9 92 0.6 N 11 15 6 8 1020.6 - 0.0
28/07:30am 9.6 6.6 7.5 87 1.0 N 13 15 7 8 1020.3 - 0.0
28/07:00am 9.8 6.9 8.1 89 0.8 N 13 15 7 8 1019.9 - 0.0
28/06:30am 9.8 7.2 7.6 86 1.1 NNW 11 13 6 7 1020.1 - 0.0
28/06:00am 9.7 7.0 7.3 85 1.1 NNW 11 13 6 7 1020.1 1020.2 0.0
28/05:30am 9.5 6.7 6.9 84 1.2 NW 11 13 6 7 1019.9 - 0.0
28/05:00am 9.2 6.4 6.8 85 1.1 NNW 11 13 6 7 1019.6 - 0.0
28/04:30am 9.4 6.5 6.3 81 1.4 N 11 15 6 8 1019.7 - 0.0
28/04:00am 8.9 5.8 5.6 80 1.5 NNW 11 15 6 8 1019.7 - 0.0
28/03:30am 8.8 5.6 5.2 78 1.6 NNW 11 13 6 7 1019.6 - 0.0
28/03:00am 8.9 6.0 4.9 76 1.8 NNW 9 11 5 6 1019.7 1019.8 0.0
28/02:30am 9.7 6.1 4.9 72 2.2 NNW 13 17 7 9 1019.6 - 0.0
28/02:00am 9.9 5.9 4.9 71 2.3 NNW 15 17 8 9 1019.7 - 0.0
28/01:30am 9.7 6.0 4.7 71 2.3 NNW 13 15 7 8 1019.7 - 0.0
28/01:00am 10.2 6.5 4.6 68 2.5 N 13 17 7 9 1019.7 - 0.0
28/12:30am 10.6 6.6 4.9 68 2.6 N 15 17 8 9 1019.9 - 0.0
28/12:00am 10.1 6.1 5.1 71 2.3 N 15 17 8 9 1020.0 1020.1 0.0
 
Date/Time
CST
Temp
°C
App
Temp
°C
Dew
Point
Rel
Hum
%
Delta-T
°C
Wind Press
QNH
hPa
Press
MSL
hPa
Rain
since 9 am
mm
Dir
 
Spd
km/h
Gust
km/h
Spd
kts
Gust
kts
27/11:30pm 10.9 7.6 4.6 65 2.9 NNW 11 13 6 7 1020.1 - 0.0
27/11:00pm 10.7 7.0 4.4 65 2.8 NNW 13 17 7 9 1020.3 - 0.0
27/10:30pm 10.8 7.0 3.8 62 3.1 NNW 13 17 7 9 1020.6 - 0.0
27/10:00pm 11.1 6.9 3.9 61 3.2 NNW 15 17 8 9 1020.5 - 0.0
27/09:30pm 11.5 7.7 3.8 59 3.5 NW 13 17 7 9 1020.7 - 0.0
27/09:00pm 12.0 8.2 4.0 58 3.6 NW 13 15 7 8 1020.6 1020.7 0.0
27/08:30pm 12.6 8.8 4.1 56 3.9 NNW 13 15 7 8 1020.6 - 0.0
27/08:00pm 13.3 9.6 4.5 55 4.1 NW 13 13 7 7 1020.7 - 0.0
27/07:30pm 13.7 10.4 4.8 55 4.2 WNW 11 13 6 7 1020.6 - 0.0
27/07:00pm 13.6 10.5 5.5 58 3.8 WNW 11 13 6 7 1020.3 - 0.0
27/06:30pm 14.2 10.7 5.6 56 4.1 W 13 17 7 9 1020.2 - 0.0
27/06:00pm 14.8 11.9 6.6 58 4.0 W 11 15 6 8 1020.1 1020.2 0.0
27/05:30pm 16.3 12.8 7.0 54 4.6 W 15 17 8 9 1019.8 - 0.0
27/05:00pm 18.0 14.9 7.1 49 5.5 WNW 13 19 7 10 1019.6 - 0.0
27/04:30pm 18.4 13.7 5.9 44 6.2 WNW 20 28 11 15 1019.6 - 0.0
27/04:00pm 19.6 15.2 7.4 45 6.3 NW 20 28 11 15 1019.4 - 0.0
27/03:30pm 19.8 14.4 6.2 41 6.8 NW 24 33 13 18 1019.4 - 0.0
27/03:00pm 20.0 14.8 7.1 43 6.6 NW 24 33 13 18 1019.3 1019.4 0.0
27/02:30pm 20.0 14.4 5.3 38 7.3 NNW 24 33 13 18 1019.4 - 0.0
27/02:00pm 19.6 13.2 5.3 39 7.1 NNW 28 39 15 21 1019.6 - 0.0
27/01:30pm 19.4 14.2 7.2 45 6.2 N 24 33 13 18 1020.0 - 0.0
27/01:00pm 19.1 14.0 7.8 48 5.8 N 24 35 13 19 1020.8 - 0.0
27/12:30pm 18.4 12.5 5.9 44 6.2 NNW 26 35 14 19 1021.4 - 0.0
27/12:00pm 18.0 11.7 5.6 44 6.1 NNW 28 37 15 20 1022.0 1022.2 0.0
27/11:30am 17.1 10.7 5.4 46 5.7 N 28 43 15 23 1022.4 - 0.0
27/11:00am 16.3 10.0 5.6 49 5.2 N 28 41 15 22 1023.0 - 0.0
27/10:30am 15.3 9.2 4.9 50 4.9 N 26 35 14 19 1023.5 - 0.0
27/10:00am 14.0 8.9 5.9 58 3.9 N 22 32 12 17 1023.6 - 0.0
27/09:30am 12.4 7.7 6.0 65 3.0 N 20 28 11 15 1023.5 - 0.0
27/09:00am 11.2 5.5 4.7 64 3.0 N 24 32 13 17 1023.6 1023.8 0.0
27/08:30am 9.8 4.7 4.2 68 2.5 N 20 26 11 14 1023.7 - 0.0
27/08:00am 8.6 3.4 3.6 71 2.2 N 20 26 11 14 1023.6 - 0.0
27/07:30am 7.7 2.7 3.6 75 1.8 N 19 24 10 13 1023.4 - 0.0
27/07:00am 8.1 2.9 3.6 73 2.0 N 20 26 11 14 1023.0 - 0.0
27/06:30am 8.0 2.5 3.8 75 1.8 N 22 26 12 14 1022.5 - 0.0
27/06:00am 8.0 2.8 3.8 75 1.8 N 20 26 11 14 1022.5 1022.7 0.0
27/05:30am 8.6 3.1 4.0 73 2.0 N 22 28 12 15 1022.5 - 0.0
27/05:00am 9.6 3.8 4.2 69 2.4 N 24 30 13 16 1022.5 - 0.0
27/04:30am 9.5 4.1 4.3 70 2.3 N 22 28 12 15 1022.9 - 0.0
27/04:00am 9.3 4.3 4.5 72 2.1 N 20 24 11 13 1023.5 - 0.0
27/03:30am 8.9 4.1 4.9 76 1.8 N 19 22 10 12 1024.0 - 0.0
27/03:00am 8.9 4.2 5.3 78 1.6 N 19 22 10 12 1024.2 1024.3 0.0
27/02:30am 9.1 4.5 5.5 78 1.6 N 19 22 10 12 1024.3 - 0.0
27/02:00am 9.0 4.4 5.7 80 1.5 N 19 22 10 12 1024.4 - 0.0
27/01:30am 9.1 4.5 5.7 79 1.6 N 19 22 10 12 1024.5 - 0.0
27/01:00am 9.7 4.9 5.7 76 1.8 N 20 24 11 13 1024.6 - 0.0
27/12:30am 9.7 5.2 6.1 78 1.7 N 19 24 10 13 1024.8 - 0.0
27/12:00am 9.6 5.1 6.0 78 1.7 N 19 22 10 12 1024.9 1025.0 0.0
 
Date/Time
CST
Temp
°C
App
Temp
°C
Dew
Point
Rel
Hum
%
Delta-T
°C
Wind Press
QNH
hPa
Press
MSL
hPa
Rain
since 9 am
mm
Dir
 
Spd
km/h
Gust
km/h
Spd
kts
Gust
kts
26/11:30pm 9.9 5.2 5.9 76 1.9 N 20 24 11 13 1024.7 - 0.0
26/11:00pm 10.3 5.6 6.1 75 2.0 NNE 20 24 11 13 1024.9 - 0.0
26/10:30pm 10.7 6.2 6.3 74 2.1 NNE 19 24 10 13 1025.1 - 0.0
26/10:00pm 11.0 6.6 6.6 74 2.1 NNE 19 24 10 13 1025.3 - 0.0
26/09:30pm 10.5 6.1 6.6 77 1.8 NNE 19 20 10 11 1025.4 - 0.0
26/09:00pm 10.5 6.5 6.6 77 1.8 NE 17 20 9 11 1025.5 1025.6 0.0
26/08:30pm 10.2 6.3 6.9 80 1.6 NE 17 19 9 10 1025.7 - 0.0
26/08:00pm 10.8 7.6 6.9 77 1.9 NNE 13 17 7 9 1025.6 - 0.0
26/07:30pm 11.2 7.8 7.5 78 1.8 NNE 15 17 8 9 1025.5 - 0.0
26/07:00pm 10.8 7.7 7.3 79 1.7 N 13 15 7 8 1025.5 - 0.0
26/06:30pm 10.2 7.4 6.9 80 1.6 N 11 13 6 7 1025.4 - 0.0
26/06:00pm 11.0 8.7 7.5 79 1.7 N 9 9 5 5 1025.3 1025.4 0.0
26/05:30pm 13.2 11.5 8.3 72 2.5 N 7 9 4 5 1025.3 - 0.0
26/05:00pm 15.5 13.6 9.0 65 3.4 NNW 9 11 5 6 1025.4 - 0.0
26/04:30pm 16.2 14.0 9.2 63 3.6 N 11 17 6 9 1025.4 - 0.0
26/04:00pm 16.3 13.4 8.0 58 4.2 NNW 13 17 7 9 1025.5 - 0.0
26/03:30pm 16.4 12.9 8.6 60 4.0 N 17 24 9 13 1025.5 - 0.0
26/03:00pm 16.7 12.9 7.4 54 4.7 NNW 17 22 9 12 1025.5 1025.6 0.0
26/02:30pm 16.4 12.9 8.9 61 3.9 NNW 17 24 9 13 1025.6 - 0.0
26/02:00pm 16.4 12.5 7.3 55 4.6 NNW 17 24 9 13 1025.7 - 0.0
26/01:30pm 16.7 13.8 9.6 63 3.7 N 15 24 8 13 1025.9 - 0.0
26/01:00pm 16.3 13.2 9.0 62 3.8 NNW 15 20 8 11 1026.3 - 0.0
26/12:30pm 16.0 12.6 9.2 64 3.5 N 17 22 9 12 1027.0 - 0.0

Other Formats:

Comma delimited format used in spreadsheet applications
http://www.bom.gov.au/fwo/IDS60801/IDS60801.95662.axf

JavaScript Object Notation format (JSON) in row-major order
http://www.bom.gov.au/fwo/IDS60801/IDS60801.95662.json